Time;durP1;ratioP1;P1;durP2;ratioP2;P2;SDS_P1;SDS_P2;PMS_P1;PMS_P2;Temp;Humidity;BMP_temperature;BMP_pressure;BME280_temperature;BME280_humidity;BME280_pressure;Samples;Min_cycle;Max_cycle;Signal;HPM_P1;HPM_P2
2021/07/10 00:00:52;;;;;;;21.25;16.12;;;;;;;23.17;66.21;99027.75;2291135;77;21006;-77
2021/07/10 00:03:56;;;;;;;16.67;14.33;;;;;;;23.24;66.08;99032.84;2268456;78;20939;-77
2021/07/10 00:06:58;;;;;;;13.93;9.10;;;;;;;23.30;65.51;99038.82;2291485;78;21276;-77
2021/07/10 00:09:59;;;;;;;16.87;9.75;;;;;;;23.26;65.02;99033.20;2291805;78;21320;-77
2021/07/10 00:13:00;;;;;;;15.55;8.43;;;;;;;23.08;64.75;99028.54;2291414;78;21344;-77
2021/07/10 00:16:01;;;;;;;9.83;7.37;;;;;;;23.08;64.90;99020.09;2291469;78;20916;-77
2021/07/10 00:19:02;;;;;;;12.47;7.97;;;;;;;22.95;64.92;99020.13;2291475;78;20900;-78
2021/07/10 00:22:03;;;;;;;12.13;6.78;;;;;;;22.98;65.15;99015.16;2291413;78;20865;-77
2021/07/10 00:25:04;;;;;;;14.43;7.47;;;;;;;23.07;64.70;99009.50;2291495;78;20904;-76
2021/07/10 00:28:07;;;;;;;13.32;6.47;;;;;;;23.18;64.04;99008.18;2291438;78;20945;-77
2021/07/10 00:31:07;;;;;;;12.43;6.60;;;;;;;23.17;63.66;99000.25;2290953;78;20956;-76
2021/07/10 00:34:08;;;;;;;12.13;6.12;;;;;;;22.96;64.11;98993.05;2291416;78;21155;-76
2021/07/10 00:37:09;;;;;;;10.23;5.55;;;;;;;23.02;64.26;99000.34;2287456;78;20981;-77
2021/07/10 00:40:10;;;;;;;7.87;5.80;;;;;;;23.03;63.77;98996.76;2281462;77;20862;-77
2021/07/10 00:43:11;;;;;;;15.53;5.90;;;;;;;23.05;63.93;99002.03;2281514;78;20899;-77
2021/07/10 00:46:15;;;;;;;9.68;5.25;;;;;;;23.11;63.58;99008.00;2281622;77;20887;-77
2021/07/10 00:49:15;;;;;;;9.53;5.40;;;;;;;23.23;62.95;99013.80;2281414;77;20958;-76
2021/07/10 00:52:15;;;;;;;144.47;119.82;;;;;;;23.24;62.50;99010.21;2281504;77;20902;-77
2021/07/10 00:55:16;;;;;;;64.77;48.13;;;;;;;23.26;62.00;99015.89;2281372;78;20941;-77
2021/07/10 00:58:17;;;;;;;42.50;29.07;;;;;;;23.18;61.91;99026.82;2281549;78;20911;-77
2021/07/10 01:01:18;;;;;;;19.27;10.75;;;;;;;23.14;61.95;99040.30;2281141;78;20957;-77
2021/07/10 01:04:19;;;;;;;16.67;10.98;;;;;;;23.10;61.97;99030.69;2281493;78;20906;-77
2021/07/10 01:07:20;;;;;;;23.73;12.95;;;;;;;23.06;62.00;99031.72;2281295;78;21293;-76
2021/07/10 01:10:21;;;;;;;12.33;6.62;;;;;;;22.95;62.15;99034.77;2281500;78;20918;-77
2021/07/10 01:13:22;;;;;;;20.72;10.03;;;;;;;23.03;62.08;99037.16;2281355;78;20972;-76
2021/07/10 01:16:23;;;;;;;13.48;5.12;;;;;;;23.07;61.83;99036.98;2281476;78;20907;-77
2021/07/10 01:19:26;;;;;;;11.45;5.37;;;;;;;22.97;61.13;99046.22;2281424;77;20957;-77
2021/07/10 01:22:27;;;;;;;14.43;6.10;;;;;;;22.63;62.21;99049.61;2281445;77;21009;-76
2021/07/10 01:25:28;;;;;;;7.42;4.72;;;;;;;22.67;62.62;99052.58;2281510;77;20903;-76
2021/07/10 01:28:29;;;;;;;28.32;15.55;;;;;;;22.79;62.40;99061.47;2281454;78;20923;-77
2021/07/10 01:31:30;;;;;;;16.82;7.40;;;;;;;22.78;62.32;99061.93;2281080;78;20966;-77
2021/07/10 01:34:34;;;;;;;9.98;4.97;;;;;;;22.77;61.85;99054.87;2281416;77;20903;-76
2021/07/10 01:37:33;;;;;;;10.48;4.00;;;;;;;22.69;62.24;99059.58;2285631;78;21039;-76
2021/07/10 01:40:34;;;;;;;8.35;3.72;;;;;;;22.20;61.33;99062.48;2291331;78;20885;-76
2021/07/10 01:43:35;;;;;;;12.15;4.33;;;;;;;22.08;63.41;99064.20;2291244;78;20960;-77
2021/07/10 01:46:36;;;;;;;8.83;3.37;;;;;;;22.15;62.79;99063.55;2291174;78;20964;-77
2021/07/10 01:49:37;;;;;;;10.25;4.03;;;;;;;22.10;62.73;99058.84;2291285;78;20940;-78
2021/07/10 01:52:37;;;;;;;13.70;3.70;;;;;;;21.97;62.07;99059.64;2291519;78;20924;-77
2021/07/10 01:55:38;;;;;;;11.28;3.77;;;;;;;21.43;62.58;99061.66;2291365;78;20976;-77
2021/07/10 01:58:39;;;;;;;13.72;6.25;;;;;;;21.16;64.30;99061.08;2291356;78;20893;-77
2021/07/10 02:01:40;;;;;;;9.93;4.53;;;;;;;21.45;64.07;99062.48;2291334;78;20968;-77
2021/07/10 02:04:41;;;;;;;8.35;2.90;;;;;;;21.51;63.69;99062.31;2291655;78;20900;-77
2021/07/10 02:07:42;;;;;;;12.05;3.30;;;;;;;21.44;63.27;99067.39;2291253;78;20886;-77
2021/07/10 02:10:44;;;;;;;9.13;3.37;;;;;;;21.52;63.76;99058.74;2290991;78;20972;-77
2021/07/10 02:13:45;;;;;;;7.33;2.90;;;;;;;21.52;63.28;99061.85;2291366;78;20977;-77
2021/07/10 02:16:46;;;;;;;9.90;3.12;;;;;;;21.39;62.90;99067.10;2291310;78;20889;-78
2021/07/10 02:19:47;;;;;;;13.20;6.55;;;;;;;20.97;63.42;99070.86;2291626;78;20950;-77
2021/07/10 02:22:48;;;;;;;12.53;2.92;;;;;;;21.04;64.15;99079.53;2291532;78;20904;-77
2021/07/10 02:25:49;;;;;;;7.00;3.02;;;;;;;21.26;64.12;99077.20;2291399;78;20972;-77
2021/07/10 02:28:50;;;;;;;5.22;2.75;;;;;;;21.49;63.59;99078.75;2291535;78;20991;-77
2021/07/10 02:31:51;;;;;;;6.05;3.12;;;;;;;21.56;63.23;99080.77;2291510;78;20968;-77
2021/07/10 02:34:51;;;;;;;4.87;2.27;;;;;;;21.58;62.94;99074.95;2291440;78;20900;-76
2021/07/10 02:37:52;;;;;;;7.22;2.52;;;;;;;21.61;63.49;99065.57;2286473;78;20926;-76
2021/07/10 02:40:53;;;;;;;31.17;5.17;;;;;;;21.71;62.67;99063.55;2281730;78;20933;-78
2021/07/10 02:43:54;;;;;;;6.83;4.22;;;;;;;21.63;62.40;99061.95;2281600;77;20880;-78
2021/07/10 02:46:55;;;;;;;12.63;4.22;;;;;;;21.54;62.68;99074.17;2281707;78;20997;-76
2021/07/10 02:49:56;;;;;;;7.03;3.35;;;;;;;21.18;61.48;99083.14;2281792;77;20942;-77
2021/07/10 02:52:57;;;;;;;8.88;2.25;;;;;;;20.76;62.56;99081.13;2281603;78;20926;-77
2021/07/10 02:55:58;;;;;;;9.25;2.60;;;;;;;20.44;63.29;99088.10;2281916;77;20962;-78
2021/07/10 02:58:59;;;;;;;2.42;2.05;;;;;;;20.59;64.13;99089.52;2281650;78;20922;-77
2021/07/10 03:02:00;;;;;;;5.53;2.35;;;;;;;20.87;63.27;99095.89;2281340;78;20930;-76
2021/07/10 03:05:01;;;;;;;8.83;2.25;;;;;;;21.01;63.42;99098.64;2281684;78;20875;-78
2021/07/10 03:08:02;;;;;;;5.42;1.92;;;;;;;21.13;63.17;99104.50;2281509;77;20879;-77
2021/07/10 03:11:02;;;;;;;6.90;2.10;;;;;;;21.40;61.61;99105.56;2281557;78;20922;-76
2021/07/10 03:14:04;;;;;;;7.15;3.25;;;;;;;20.91;62.67;99101.53;2281445;77;20989;-77
2021/07/10 03:17:04;;;;;;;6.58;3.85;;;;;;;21.13;62.49;99107.16;2281295;78;20961;-77
2021/07/10 03:20:06;;;;;;;6.37;4.03;;;;;;;21.39;62.25;99118.43;2281294;77;20867;-76
2021/07/10 03:23:06;;;;;;;5.12;2.70;;;;;;;21.57;61.44;99114.39;2281431;77;21385;-77
2021/07/10 03:26:07;;;;;;;5.00;2.52;;;;;;;21.58;61.14;99118.33;2281652;77;20959;-77
2021/07/10 03:29:08;;;;;;;3.27;2.00;;;;;;;21.69;60.90;99115.86;2281935;77;21282;-77
2021/07/10 03:32:09;;;;;;;3.52;1.90;;;;;;;21.63;60.39;99116.87;2281744;77;21344;-77
2021/07/10 03:35:10;;;;;;;6.65;2.00;;;;;;;21.67;60.20;99117.20;2282070;77;21329;-76
2021/07/10 03:38:11;;;;;;;10.32;2.60;;;;;;;21.43;60.34;99117.43;2264990;78;20959;-78
2021/07/10 03:41:14;;;;;;;36.95;4.62;;;;;;;21.48;60.79;99128.80;2249792;79;20924;-78
2021/07/10 03:44:14;;;;;;;6.37;2.20;;;;;;;21.62;60.69;99130.61;2249492;79;20945;-77
2021/07/10 03:47:17;;;;;;;8.38;1.92;;;;;;;21.79;60.10;99130.16;2228268;79;20896;-78
2021/07/10 03:50:18;;;;;;;14.18;2.20;;;;;;;21.60;59.04;99132.44;2249935;79;20912;-77
2021/07/10 03:53:19;;;;;;;14.03;3.98;;;;;;;20.78;59.86;99122.63;2249423;79;20991;-79
2021/07/10 03:56:20;;;;;;;6.67;5.12;;;;;;;20.23;60.88;99125.69;2249637;79;20889;-80
2021/07/10 03:59:21;;;;;;;6.62;5.65;;;;;;;19.81;62.05;99119.52;2249631;79;21303;-78
2021/07/10 04:02:22;;;;;;;4.47;3.10;;;;;;;19.44;62.97;99116.70;2249338;79;21371;-79
2021/07/10 04:05:22;;;;;;;4.67;2.15;;;;;;;19.18;64.17;99107.94;2249386;79;21280;-78
2021/07/10 04:08:24;;;;;;;13.65;9.73;;;;;;;18.91;64.71;99103.99;2249804;79;20921;-79
2021/07/10 04:11:24;;;;;;;3.87;1.98;;;;;;;19.07;65.96;99102.81;2249537;79;21341;-78
2021/07/10 04:14:26;;;;;;;6.50;2.30;;;;;;;18.81;65.98;99101.09;2249559;79;20968;-78
2021/07/10 04:17:27;;;;;;;4.22;2.65;;;;;;;18.53;66.39;99110.77;2249577;79;20936;-78
2021/07/10 04:20:28;;;;;;;5.35;2.50;;;;;;;18.83;67.46;99113.83;2249352;79;20919;-78
2021/07/10 04:23:29;;;;;;;4.75;2.20;;;;;;;18.65;67.20;99111.05;2249387;79;21272;-77
2021/07/10 04:26:30;;;;;;;4.67;2.60;;;;;;;18.70;67.17;99119.77;2249226;79;20923;-77
2021/07/10 04:29:31;;;;;;;6.75;2.27;;;;;;;18.62;67.21;99121.22;2249292;79;20912;-77
2021/07/10 04:32:32;;;;;;;4.28;2.02;;;;;;;18.40;67.45;99132.55;2248964;79;21403;-78
2021/07/10 04:35:32;;;;;;;9.98;3.47;;;;;;;18.28;67.79;99134.50;2249484;79;21335;-78
2021/07/10 04:38:37;;;;;;;8.15;2.70;;;;;;;18.25;68.29;99131.45;2272796;78;20992;-78
2021/07/10 04:41:36;;;;;;;4.65;2.45;;;;;;;18.23;68.14;99124.00;2291344;77;21366;-79
2021/07/10 04:44:37;;;;;;;7.20;2.40;;;;;;;18.05;68.76;99128.19;2291779;78;20912;-78
2021/07/10 04:47:38;;;;;;;3.62;2.20;;;;;;;17.94;69.21;99134.94;2291283;78;20897;-78
2021/07/10 04:50:39;;;;;;;22.70;3.33;;;;;;;17.85;69.62;99135.50;2291711;78;21233;-82
2021/07/10 04:53:40;;;;;;;3.35;1.90;;;;;;;17.82;69.87;99143.89;2291720;78;20916;-78
2021/07/10 04:56:41;;;;;;;6.45;2.10;;;;;;;17.88;69.31;99157.91;2291574;78;20924;-77
2021/07/10 04:59:42;;;;;;;5.17;2.20;;;;;;;17.91;69.00;99155.23;2291413;78;20937;-78
2021/07/10 05:02:44;;;;;;;5.33;2.12;;;;;;;17.95;69.05;99160.91;2291636;78;21019;-78
2021/07/10 05:05:44;;;;;;;3.87;1.80;;;;;;;17.96;68.95;99157.37;2291818;78;20972;-79
2021/07/10 05:08:45;;;;;;;7.58;2.08;;;;;;;17.95;68.62;99161.77;2291595;78;21007;-79
2021/07/10 05:11:46;;;;;;;3.50;2.00;;;;;;;17.97;68.41;99154.70;2291582;78;20909;-79
2021/07/10 05:14:49;;;;;;;2.95;2.22;;;;;;;17.98;68.36;99157.77;2290752;78;20924;-78
2021/07/10 05:17:50;;;;;;;2.75;1.90;;;;;;;18.03;68.21;99155.94;2290795;78;21317;-79
2021/07/10 05:20:51;;;;;;;6.67;1.92;;;;;;;18.20;67.86;99161.00;2290986;78;20908;-79
2021/07/10 05:23:52;;;;;;;5.00;1.50;;;;;;;18.46;67.22;99160.20;2291052;78;21328;-79
2021/07/10 05:26:53;;;;;;;2.37;1.82;;;;;;;18.59;66.83;99174.56;2291277;78;20944;-79
2021/07/10 05:29:54;;;;;;;3.10;1.72;;;;;;;18.69;66.42;99159.89;2291566;78;20943;-78
2021/07/10 05:32:56;;;;;;;2.60;1.82;;;;;;;18.86;65.95;99150.36;2291585;78;20979;-78
2021/07/10 05:35:57;;;;;;;5.55;1.52;;;;;;;18.67;65.56;99152.88;2291460;78;20944;-80
2021/07/10 05:38:58;;;;;;;3.45;1.60;;;;;;;18.51;66.04;99152.66;2285083;77;20958;-78
2021/07/10 05:41:59;;;;;;;4.53;1.70;;;;;;;18.52;66.68;99150.44;2281462;77;20954;-79
2021/07/10 05:45:00;;;;;;;4.95;1.70;;;;;;;18.55;67.08;99151.72;2281421;78;20923;-78
2021/07/10 05:48:00;;;;;;;3.45;1.65;;;;;;;18.63;66.79;99141.92;2281544;78;20919;-79
2021/07/10 05:51:01;;;;;;;6.35;1.67;;;;;;;18.70;66.38;99147.54;2281710;77;20969;-80
2021/07/10 05:54:02;;;;;;;4.20;1.98;;;;;;;18.70;66.08;99143.58;2281448;78;20934;-79
2021/07/10 05:57:03;;;;;;;4.20;1.60;;;;;;;18.71;66.31;99146.20;2281506;78;20918;-78
2021/07/10 06:00:04;;;;;;;2.15;1.20;;;;;;;18.87;66.28;99152.11;2281589;77;21166;-77
2021/07/10 06:03:05;;;;;;;4.85;1.40;;;;;;;19.10;65.07;99158.36;2281351;77;20957;-78
2021/07/10 06:06:06;;;;;;;1.37;1.27;;;;;;;19.22;64.59;99154.62;2281483;78;21306;-78
2021/07/10 06:09:07;;;;;;;3.22;1.35;;;;;;;19.32;64.02;99162.81;2281249;78;20950;-78
2021/07/10 06:12:08;;;;;;;4.95;1.60;;;;;;;19.46;63.41;99163.43;2280656;78;20969;-78
2021/07/10 06:15:10;;;;;;;2.62;1.55;;;;;;;19.59;63.71;99166.75;2280603;78;21333;-78
2021/07/10 06:18:10;;;;;;;2.15;1.47;;;;;;;19.92;63.81;99159.90;2281177;77;20930;-78
2021/07/10 06:21:12;;;;;;;1.60;1.50;;;;;;;20.20;62.51;99159.76;2281323;77;20914;-78
2021/07/10 06:24:12;;;;;;;1.50;1.40;;;;;;;20.15;61.79;99166.94;2281218;78;20949;-78
2021/07/10 06:27:13;;;;;;;4.97;1.22;;;;;;;20.05;61.95;99161.42;2281501;78;20946;-78
2021/07/10 06:30:14;;;;;;;3.35;1.80;;;;;;;19.94;62.20;99166.94;2281615;77;20891;-78
2021/07/10 06:33:15;;;;;;;2.65;1.30;;;;;;;20.00;61.64;99172.11;2281010;77;20954;-77
2021/07/10 06:36:17;;;;;;;1.32;1.22;;;;;;;20.18;61.72;99168.65;2281672;77;20953;-78
2021/07/10 06:39:20;;;;;;;1.20;1.12;;;;;;;20.34;61.77;99170.92;2260376;77;21003;-78
2021/07/10 06:42:20;;;;;;;2.98;1.15;;;;;;;20.57;59.68;99178.39;2249141;79;20988;-79
2021/07/10 06:45:21;;;;;;;2.27;1.12;;;;;;;20.83;60.23;99168.52;2249175;79;20928;-78
2021/07/10 06:48:22;;;;;;;3.67;1.10;;;;;;;21.02;59.90;99168.94;2249268;79;20896;-78
2021/07/10 06:54:27;;;;;;;4.10;0.98;;;;;;;21.41;58.57;99167.05;2227235;79;21007;-78
2021/07/10 06:57:28;;;;;;;1.25;1.00;;;;;;;21.49;57.16;99172.16;2249275;79;21007;-79
2021/07/10 07:00:28;;;;;;;2.67;0.85;;;;;;;21.56;57.82;99167.97;2249133;79;20940;-78
2021/07/10 07:03:31;;;;;;;6.17;1.12;;;;;;;21.50;56.92;99175.23;2249223;79;20966;-78
2021/07/10 07:06:32;;;;;;;1.30;1.20;;;;;;;21.48;56.27;99175.73;2249171;79;20999;-78
2021/07/10 07:09:33;;;;;;;1.45;1.00;;;;;;;21.58;56.60;99172.78;2249140;79;21012;-78
2021/07/10 07:12:34;;;;;;;2.65;1.05;;;;;;;21.39;56.63;99169.34;2249067;79;20940;-77
2021/07/10 07:15:35;;;;;;;1.57;1.10;;;;;;;21.33;56.91;99172.16;2249209;79;20983;-78
2021/07/10 07:18:36;;;;;;;3.47;1.50;;;;;;;20.99;57.12;99184.93;2249337;79;20960;-77
2021/07/10 07:21:37;;;;;;;1.32;1.22;;;;;;;20.89;58.06;99178.98;2249346;79;20947;-78
2021/07/10 07:24:38;;;;;;;1.42;1.20;;;;;;;21.16;58.28;99180.06;2249352;79;21007;-78
2021/07/10 07:27:39;;;;;;;2.70;1.20;;;;;;;21.45;57.06;99187.77;2248718;79;21316;-78
2021/07/10 07:30:40;;;;;;;146.28;124.15;;;;;;;21.49;56.39;99188.97;2249366;79;21334;-78
2021/07/10 07:33:41;;;;;;;5.33;4.67;;;;;;;21.51;56.13;99185.81;2249205;79;20975;-78
2021/07/10 07:36:42;;;;;;;4.30;1.47;;;;;;;21.55;56.13;99186.60;2249543;79;20916;-79
2021/07/10 07:39:44;;;;;;;2.08;1.42;;;;;;;21.89;56.54;99179.92;2272333;78;20953;-79
2021/07/10 07:42:45;;;;;;;2.40;1.70;;;;;;;22.23;55.62;99181.17;2281715;77;20994;-78
2021/07/10 07:45:46;;;;;;;1.75;1.40;;;;;;;22.16;54.34;99183.14;2281539;78;20942;-78
2021/07/10 07:48:47;;;;;;;2.62;1.20;;;;;;;22.07;54.54;99183.41;2281578;78;20879;-79
2021/07/10 07:51:48;;;;;;;1.67;1.17;;;;;;;22.21;54.57;99179.89;2281669;77;21349;-79
2021/07/10 07:54:49;;;;;;;3.37;1.70;;;;;;;22.77;53.18;99189.72;2281653;77;20961;-78
2021/07/10 07:57:50;;;;;;;2.05;1.30;;;;;;;23.43;51.42;99180.00;2281272;77;20939;-79
2021/07/10 08:00:51;;;;;;;2.50;1.75;;;;;;;23.91;50.96;99191.65;2281575;78;20964;-79
2021/07/10 08:03:52;;;;;;;3.62;1.82;;;;;;;23.91;51.08;99190.31;2281634;77;20984;-79
2021/07/10 08:06:53;;;;;;;2.95;1.90;;;;;;;23.86;50.65;99198.48;2281591;78;20989;-78
2021/07/10 08:09:53;;;;;;;1.30;1.20;;;;;;;23.51;51.46;99199.25;2281319;78;20930;-78
2021/07/10 08:12:55;;;;;;;1.15;1.10;;;;;;;23.43;50.33;99200.44;2281546;77;20918;-78
2021/07/10 08:15:56;;;;;;;3.67;1.42;;;;;;;23.38;50.89;99203.69;2281523;77;20914;-79
2021/07/10 08:18:57;;;;;;;2.40;1.70;;;;;;;23.46;50.72;99201.20;2281635;78;20914;-79
2021/07/10 08:21:58;;;;;;;2.12;1.30;;;;;;;23.72;51.11;99196.78;2281527;78;20914;-79
2021/07/10 08:24:59;;;;;;;1.57;1.30;;;;;;;23.78;50.62;99196.55;2281358;77;20902;-79
2021/07/10 08:27:59;;;;;;;2.42;1.30;;;;;;;23.90;49.64;99197.91;2281491;78;20945;-78
2021/07/10 08:31:01;;;;;;;1.40;1.30;;;;;;;23.97;50.14;99197.62;2281590;78;20926;-79
2021/07/10 08:34:02;;;;;;;1.92;1.07;;;;;;;24.14;50.00;99200.53;2281642;77;20997;-81
2021/07/10 08:37:03;;;;;;;1.90;1.50;;;;;;;24.14;49.62;99200.53;2281519;78;20934;-79
2021/07/10 08:40:04;;;;;;;2.12;1.15;;;;;;;24.19;50.58;99192.83;2256862;77;20959;-79
2021/07/10 08:43:05;;;;;;;2.12;1.52;;;;;;;24.45;49.75;99200.30;2249404;79;20940;-79
2021/07/10 08:46:07;;;;;;;3.60;1.20;;;;;;;24.40;48.38;99202.27;2249216;79;21427;-79
2021/07/10 08:49:08;;;;;;;1.15;1.02;;;;;;;24.22;49.25;99200.70;2249278;79;20908;-78
2021/07/10 08:52:09;;;;;;;2.40;1.27;;;;;;;24.20;49.08;99193.23;2249327;79;20904;-79
2021/07/10 08:55:10;;;;;;;2.25;1.95;;;;;;;24.47;48.08;99196.23;2249302;79;20939;-78
2021/07/10 08:58:11;;;;;;;4.28;1.50;;;;;;;24.75;48.21;99196.02;2249316;79;21327;-79
2021/07/10 09:01:12;;;;;;;1.45;1.30;;;;;;;25.33;48.09;99194.53;2249273;79;21312;-78
2021/07/10 09:04:13;;;;;;;1.37;1.27;;;;;;;25.50;45.20;99191.61;2249379;79;21271;-79
2021/07/10 09:07:14;;;;;;;2.02;0.95;;;;;;;25.68;45.27;99190.37;2249277;79;21328;-79
2021/07/10 09:10:15;;;;;;;6.70;1.65;;;;;;;26.12;45.37;99188.00;2249432;79;20905;-78
2021/07/10 09:13:16;;;;;;;3.27;1.40;;;;;;;26.20;44.76;99195.20;2249322;79;20940;-79
2021/07/10 09:16:17;;;;;;;1.65;1.50;;;;;;;26.58;43.81;99194.30;2249264;79;20928;-79
2021/07/10 09:19:18;;;;;;;39.23;35.13;;;;;;;26.52;43.37;99183.89;2249346;79;20904;-78
2021/07/10 09:22:19;;;;;;;2.25;1.85;;;;;;;26.82;42.37;99189.57;2248994;79;20927;-78
2021/07/10 09:25:19;;;;;;;5.35;1.17;;;;;;;26.99;41.71;99180.77;2249461;79;20905;-78
2021/07/10 09:28:20;;;;;;;5.17;1.25;;;;;;;26.89;42.39;99188.83;2249303;79;20996;-79
2021/07/10 09:31:21;;;;;;;1.32;1.02;;;;;;;26.57;42.77;99192.56;2249379;79;20885;-78
2021/07/10 09:34:22;;;;;;;3.98;1.50;;;;;;;25.87;42.94;99202.45;2249219;79;20896;-78
2021/07/10 09:37:26;;;;;;;1.57;1.47;;;;;;;25.26;44.43;99195.73;2249299;79;20933;-78
2021/07/10 09:40:27;;;;;;;4.03;1.30;;;;;;;25.53;45.11;99196.82;2274549;77;20954;-79
2021/07/10 09:43:28;;;;;;;4.45;1.25;;;;;;;26.24;43.37;99196.80;2281330;77;21317;-78
2021/07/10 09:46:29;;;;;;;1.85;1.10;;;;;;;26.72;42.11;99199.47;2281598;77;20962;-78
2021/07/10 09:49:30;;;;;;;0.90;0.90;;;;;;;27.17;41.83;99198.61;2281641;78;20925;-79
2021/07/10 09:52:31;;;;;;;1.52;1.05;;;;;;;27.38;40.98;99203.83;2281457;77;20978;-79
2021/07/10 09:55:32;;;;;;;3.42;1.32;;;;;;;27.07;40.33;99206.70;2281313;78;20965;-77
2021/07/10 09:58:33;;;;;;;1.50;1.40;;;;;;;26.40;41.32;99213.05;2281420;78;20959;-77
2021/07/10 10:01:34;;;;;;;0.90;0.90;;;;;;;25.97;42.39;99213.14;2281426;78;20974;-78
2021/07/10 10:04:35;;;;;;;2.15;0.90;;;;;;;25.86;42.22;99214.55;2281384;77;20907;-79
2021/07/10 10:07:36;;;;;;;1.45;1.10;;;;;;;26.27;42.15;99211.38;2281393;78;20922;-79
2021/07/10 10:10:37;;;;;;;4.22;1.02;;;;;;;26.56;40.73;99218.94;2281432;77;20950;-78
2021/07/10 10:13:38;;;;;;;1.85;1.10;;;;;;;26.02;41.88;99216.50;2281342;78;20942;-79
2021/07/10 10:16:43;;;;;;;2.90;1.37;;;;;;;25.71;42.79;99209.41;2281469;78;20959;-78
2021/07/10 10:19:42;;;;;;;1.35;0.90;;;;;;;25.60;42.77;99214.33;2281249;78;20902;-79
2021/07/10 10:22:44;;;;;;;4.17;1.20;;;;;;;25.58;42.85;99211.72;2281390;78;20991;-78
2021/07/10 10:25:45;;;;;;;0.80;0.80;;;;;;;25.31;43.13;99221.78;2281542;77;20879;-79
2021/07/10 10:28:46;;;;;;;4.00;1.57;;;;;;;25.28;44.11;99229.94;2281402;77;20907;-77
2021/07/10 10:31:47;;;;;;;3.80;1.10;;;;;;;25.37;43.72;99235.36;2281418;78;20907;-78
2021/07/10 10:34:50;;;;;;;4.58;2.02;;;;;;;25.22;43.99;99239.54;2281368;78;20946;-79
2021/07/10 10:37:51;;;;;;;2.37;1.22;;;;;;;25.16;43.51;99236.25;2281450;78;20914;-78
2021/07/10 10:40:52;;;;;;;3.90;1.72;;;;;;;25.21;44.16;99247.62;2253172;77;20928;-78
2021/07/10 10:43:53;;;;;;;8.05;1.75;;;;;;;25.24;44.00;99244.35;2249264;79;20904;-79
2021/07/10 10:46:55;;;;;;;1.02;0.90;;;;;;;25.25;43.87;99251.44;2249304;79;20939;-78
2021/07/10 10:49:56;;;;;;;0.95;0.93;;;;;;;25.16;43.87;99245.13;2249425;79;20963;-78
2021/07/10 10:52:58;;;;;;;1.00;0.93;;;;;;;25.27;43.13;99248.23;2249151;79;20969;-78
2021/07/10 10:56:00;;;;;;;2.05;1.10;;;;;;;25.30;43.73;99244.09;2249346;79;20948;-78
2021/07/10 10:59:01;;;;;;;1.80;1.10;;;;;;;25.43;42.46;99251.59;2249336;79;21325;-78
2021/07/10 11:02:02;;;;;;;1.90;0.90;;;;;;;25.53;42.73;99244.93;2248444;79;20990;-78
2021/07/10 11:05:03;;;;;;;4.75;1.07;;;;;;;26.07;42.62;99243.52;2248774;79;21323;-78
2021/07/10 11:08:04;;;;;;;4.00;1.37;;;;;;;25.99;41.71;99242.48;2249154;79;20917;-78
2021/07/10 11:11:05;;;;;;;2.67;1.10;;;;;;;26.00;42.53;99238.87;2249337;79;20939;-78
2021/07/10 11:14:10;;;;;;;2.55;1.37;;;;;;;26.07;41.90;99240.38;2249250;79;20936;-79
2021/07/10 11:17:13;;;;;;;1.00;0.90;;;;;;;26.11;42.22;99240.63;2248872;79;21705;-79
2021/07/10 11:20:14;;;;;;;3.05;1.30;;;;;;;25.99;42.13;99241.16;2249462;79;20932;-79
2021/07/10 11:23:15;;;;;;;1.12;1.00;;;;;;;25.86;41.99;99231.47;2249476;79;20893;-79
2021/07/10 11:26:17;;;;;;;3.22;1.40;;;;;;;25.81;41.91;99237.48;2249435;79;20968;-78
2021/07/10 11:29:18;;;;;;;1.00;1.00;;;;;;;25.98;41.83;99233.59;2249418;79;20965;-78
2021/07/10 11:32:19;;;;;;;0.80;0.80;;;;;;;26.31;41.21;99223.67;2249329;79;21272;-78
2021/07/10 11:35:20;;;;;;;0.82;0.70;;;;;;;26.31;41.06;99231.70;2249413;79;20956;-79
2021/07/10 11:38:21;;;;;;;1.20;1.10;;;;;;;26.15;40.21;99226.65;2249428;79;20865;-78
2021/07/10 11:41:21;;;;;;;1.82;0.85;;;;;;;25.78;41.12;99222.05;2289021;77;20934;-79
2021/07/10 11:44:22;;;;;;;3.20;0.95;;;;;;;26.17;40.12;99225.64;2291621;78;21031;-78
2021/07/10 11:47:23;;;;;;;2.50;1.00;;;;;;;25.73;41.13;99224.92;2291515;78;20877;-78
2021/07/10 11:50:24;;;;;;;3.02;0.72;;;;;;;25.62;41.96;99225.82;2291420;78;20896;-78
2021/07/10 11:53:25;;;;;;;3.33;1.98;;;;;;;25.79;41.46;99220.64;2291355;78;21420;-79
2021/07/10 11:56:26;;;;;;;2.67;1.30;;;;;;;26.25;40.84;99221.28;2291501;78;20909;-80
2021/07/10 11:59:27;;;;;;;4.50;3.35;;;;;;;26.54;40.03;99215.94;2291612;78;20893;-78
2021/07/10 12:02:29;;;;;;;3.50;1.40;;;;;;;27.12;39.31;99210.03;2293189;77;21020;-78
2021/07/10 12:05:33;;;;;;;1.45;1.05;;;;;;;27.28;39.44;99209.66;2292035;77;21303;-80
2021/07/10 12:08:32;;;;;;;2.47;1.10;;;;;;;27.28;38.73;99209.66;2291373;77;21367;-79
2021/07/10 12:11:33;;;;;;;1.15;0.85;;;;;;;26.79;39.34;99208.47;2291555;78;20909;-79
2021/07/10 12:14:34;;;;;;;0.85;0.85;;;;;;;26.70;39.79;99209.38;2291421;78;20927;-79
2021/07/10 12:17:35;;;;;;;1.10;1.00;;;;;;;26.66;40.56;99209.53;2291477;78;21269;-79
2021/07/10 12:20:36;;;;;;;0.70;0.70;;;;;;;26.60;40.72;99212.50;2291444;78;20890;-79
2021/07/10 12:23:37;;;;;;;1.55;1.05;;;;;;;26.53;40.71;99205.70;2291559;78;20937;-78
2021/07/10 12:26:38;;;;;;;1.92;0.62;;;;;;;26.44;39.13;99208.81;2291379;78;20948;-79
2021/07/10 12:29:39;;;;;;;13.98;12.73;;;;;;;26.53;39.87;99201.69;2291433;78;20956;-78
2021/07/10 12:32:40;;;;;;;1.20;1.20;;;;;;;27.34;39.25;99196.41;2292907;77;21033;-79
2021/07/10 12:35:41;;;;;;;0.80;0.80;;;;;;;27.77;36.88;99205.84;2298705;77;21341;-78
2021/07/10 12:38:42;;;;;;;0.70;0.70;;;;;;;27.84;36.87;99200.55;2294669;77;20920;-78
2021/07/10 12:41:43;;;;;;;3.92;1.20;;;;;;;27.63;37.83;99198.97;2281486;78;20979;-78
2021/07/10 12:44:44;;;;;;;4.60;1.00;;;;;;;27.55;38.33;99193.97;2281588;77;20919;-79
2021/07/10 12:47:45;;;;;;;0.98;0.78;;;;;;;27.80;36.91;99199.45;2281509;77;20883;-79
2021/07/10 12:50:45;;;;;;;1.00;0.90;;;;;;;28.24;36.60;99194.41;2281491;78;20950;-79
2021/07/10 12:53:47;;;;;;;1.25;1.00;;;;;;;28.80;36.00;99194.44;2281458;78;20984;-78
2021/07/10 12:56:48;;;;;;;1.82;0.80;;;;;;;28.60;35.62;99193.33;2281529;78;21405;-78
2021/07/10 12:59:49;;;;;;;2.37;0.70;;;;;;;28.35;35.64;99187.11;2281633;77;21408;-78
2021/07/10 13:02:50;;;;;;;0.70;0.70;;;;;;;28.41;36.20;99192.14;2275914;78;21037;-79
2021/07/10 13:05:52;;;;;;;0.70;0.70;;;;;;;28.89;35.51;99186.36;2249712;79;21323;-79
2021/07/10 13:08:53;;;;;;;0.65;0.65;;;;;;;29.25;34.35;99184.22;2278863;78;20950;-78
2021/07/10 13:11:54;;;;;;;1.65;0.70;;;;;;;29.12;34.31;99185.42;2281601;77;20974;-78
2021/07/10 13:14:55;;;;;;;0.70;0.70;;;;;;;28.81;35.01;99184.95;2281487;78;20970;-79
2021/07/10 13:17:56;;;;;;;0.98;0.98;;;;;;;28.33;33.92;99188.55;2281559;78;21001;-78
2021/07/10 13:20:57;;;;;;;1.32;0.82;;;;;;;27.64;35.70;99184.61;2281497;77;20989;-79
2021/07/10 13:23:58;;;;;;;1.17;1.10;;;;;;;27.28;36.24;99189.55;2281570;77;20982;-79
2021/07/10 13:26:59;;;;;;;2.45;1.02;;;;;;;26.98;37.10;99196.45;2281298;78;20965;-79
2021/07/10 13:30:00;;;;;;;2.40;1.00;;;;;;;26.61;38.27;99190.61;2281613;77;20899;-78
2021/07/10 13:33:01;;;;;;;3.15;0.90;;;;;;;26.49;39.40;99192.06;2281285;77;21033;-79
2021/07/10 13:36:02;;;;;;;1.00;0.90;;;;;;;26.26;39.08;99181.06;2281412;77;20894;-80
2021/07/10 13:39:03;;;;;;;0.90;0.90;;;;;;;26.14;38.95;99183.45;2281456;78;20906;-79
2021/07/10 13:42:05;;;;;;;0.98;0.90;;;;;;;26.33;39.04;99185.70;2281436;78;20911;-78
2021/07/10 13:45:05;;;;;;;2.05;1.00;;;;;;;26.65;38.79;99184.17;2281470;78;20934;-79
2021/07/10 13:48:06;;;;;;;1.75;0.80;;;;;;;26.71;37.53;99184.34;2281613;77;20914;-79
2021/07/10 13:51:07;;;;;;;3.00;0.80;;;;;;;26.59;37.88;99185.33;2281433;78;20921;-79
2021/07/10 13:54:08;;;;;;;2.80;1.00;;;;;;;26.49;38.55;99177.81;2281569;77;20993;-78
2021/07/10 13:57:09;;;;;;;0.93;0.90;;;;;;;26.15;38.92;99175.81;2281461;78;20887;-78
2021/07/10 14:00:11;;;;;;;3.30;0.85;;;;;;;25.87;39.12;99179.72;2281642;77;20901;-79
2021/07/10 14:03:12;;;;;;;3.08;0.80;;;;;;;25.90;38.86;99180.92;2274230;78;21364;-79
2021/07/10 14:06:13;;;;;;;4.00;1.10;;;;;;;25.87;39.40;99180.19;2258436;78;21087;-78
2021/07/10 14:09:14;;;;;;;1.30;0.90;;;;;;;25.76;40.11;99179.80;2281604;78;20883;-78
2021/07/10 14:12:15;;;;;;;3.15;1.10;;;;;;;25.72;40.54;99188.43;2281427;78;21349;-78